Time;durP1;ratioP1;P1;durP2;ratioP2;P2;SDS_P1;SDS_P2;PMS_P1;PMS_P2;Temp;Humidity;BMP_temperature;BMP_pressure;BME280_temperature;BME280_humidity;BME280_pressure;Samples;Min_cycle;Max_cycle;Signal;HPM_P1;HPM_P2
2022/07/23 00:00:34;;;;;;;13.90;6.23;;;;;;;21.23;48.23;100558.30;126763;1098;102206;-79
2022/07/23 00:03:10;;;;;;;16.27;6.37;;;;;;;21.12;48.39;100555.70;126791;1099;102752;-79
2022/07/23 00:05:45;;;;;;;15.67;6.50;;;;;;;21.00;48.29;100556.69;126017;1099;102210;-79
2022/07/23 00:08:20;;;;;;;14.85;6.53;;;;;;;20.92;48.73;100552.28;125962;1099;102282;-78
2022/07/23 00:10:52;;;;;;;21.50;6.33;;;;;;;20.85;48.89;100561.20;126060;1099;104198;-78
2022/07/23 00:13:28;;;;;;;16.20;6.43;;;;;;;20.75;50.33;100558.58;126237;1099;104162;-79
2022/07/23 00:16:16;;;;;;;15.73;6.77;;;;;;;20.68;49.46;100564.86;125982;1099;104334;-78
2022/07/23 00:19:05;;;;;;;17.57;6.77;;;;;;;20.59;51.17;100570.20;125832;1098;104168;-79
2022/07/23 00:21:44;;;;;;;15.60;6.43;;;;;;;20.50;50.62;100563.12;125954;1099;110581;-80
2022/07/23 00:24:18;;;;;;;15.70;6.60;;;;;;;20.43;50.86;100559.59;126032;1098;104293;-80
2022/07/23 00:26:56;;;;;;;17.20;6.20;;;;;;;20.37;50.90;100559.63;125913;1099;102162;-79
2022/07/23 00:29:42;;;;;;;16.47;6.47;;;;;;;20.32;50.78;100550.77;126483;1099;102203;-79
2022/07/23 00:32:15;;;;;;;13.37;6.10;;;;;;;20.27;50.93;100557.87;126680;1099;104201;-79
2022/07/23 00:34:47;;;;;;;14.43;6.70;;;;;;;20.31;51.39;100551.65;125657;1100;102945;-79
2022/07/23 00:37:27;;;;;;;15.53;6.47;;;;;;;20.36;50.99;100559.63;125946;1102;104226;-80
2022/07/23 00:40:01;;;;;;;16.53;6.00;;;;;;;20.38;50.81;100558.73;125744;1099;102365;-80
2022/07/23 00:42:40;;;;;;;19.37;6.27;;;;;;;20.39;51.19;100552.50;125206;1102;109197;-79
2022/07/23 00:45:14;;;;;;;20.13;6.27;;;;;;;20.36;50.96;100556.96;125322;1102;104312;-79
2022/07/23 00:47:54;;;;;;;;;;;;;;;20.31;50.34;100551.65;125185;1099;104275;-79
2022/07/23 00:50:35;;;;;;;17.50;6.30;;;;;;;20.23;51.38;100551.67;125194;1102;104342;-79
2022/07/23 00:53:12;;;;;;;17.30;6.27;;;;;;;20.20;51.60;100553.47;125507;1099;117893;-79
2022/07/23 00:55:47;;;;;;;15.27;6.30;;;;;;;20.17;51.20;100550.81;125557;1099;104165;-79
2022/07/23 00:58:19;;;;;;;15.13;6.37;;;;;;;20.14;51.78;100557.03;126255;1098;101801;-80
2022/07/23 01:00:54;;;;;;;14.30;6.50;;;;;;;20.13;51.14;100557.03;125246;1099;104198;-80
2022/07/23 01:03:27;;;;;;;18.47;6.80;;;;;;;20.06;51.72;100562.37;126391;1099;102773;-80
2022/07/23 01:06:03;;;;;;;15.13;6.50;;;;;;;20.01;51.64;100556.18;125432;1099;104220;-80
2022/07/23 01:08:36;;;;;;;14.60;6.30;;;;;;;19.95;51.94;100558.85;125296;1102;102227;-80
2022/07/23 01:11:11;;;;;;;14.38;6.05;;;;;;;19.94;51.72;100554.41;125113;1099;104175;-80
2022/07/23 01:13:52;;;;;;;18.00;6.67;;;;;;;19.90;52.46;100558.86;125242;1102;111618;-80
2022/07/23 01:16:26;;;;;;;15.93;6.13;;;;;;;19.90;52.87;100560.64;125757;1102;104440;-80
2022/07/23 01:18:58;;;;;;;15.50;6.30;;;;;;;19.89;52.71;100551.75;125821;1101;104169;-80
2022/07/23 01:21:36;;;;;;;14.53;6.70;;;;;;;19.91;52.62;100562.40;126162;1102;101609;-79
2022/07/23 01:24:10;;;;;;;15.90;6.67;;;;;;;19.92;53.10;100553.53;126066;1102;101685;-80
2022/07/23 01:26:46;;;;;;;14.00;6.30;;;;;;;19.94;52.32;100570.38;125887;1099;104165;-79
2022/07/23 01:29:16;;;;;;;;;;;;;;;19.90;52.45;100568.64;126545;1099;104150;-79
2022/07/23 01:31:50;;;;;;;17.10;6.60;;;;;;;19.87;52.46;100563.31;126747;1099;104220;-81
2022/07/23 01:34:30;;;;;;;18.83;6.40;;;;;;;19.86;53.13;100558.87;126598;1098;108308;-80
2022/07/23 01:37:02;;;;;;;15.37;6.20;;;;;;;19.86;52.77;100566.86;126516;1099;102122;-80
2022/07/23 01:39:39;;;;;;;14.40;6.03;;;;;;;19.82;52.84;100559.75;126361;1099;102215;-80
2022/07/23 01:42:14;;;;;;;13.53;6.70;;;;;;;19.77;53.36;100564.20;126651;1099;102264;-79
2022/07/23 01:44:49;;;;;;;12.83;6.10;;;;;;;19.71;52.79;100573.95;126105;1099;104213;-79
2022/07/23 01:47:29;;;;;;;14.67;6.80;;;;;;;19.68;53.89;100559.73;126502;1099;104089;-80
2022/07/23 01:50:04;;;;;;;17.27;6.50;;;;;;;19.67;53.14;100571.28;126658;1099;102381;-79
2022/07/23 01:52:58;;;;;;;12.50;6.60;;;;;;;19.64;53.18;100566.84;126202;1099;102759;-79
2022/07/23 01:55:30;;;;;;;13.83;6.17;;;;;;;19.58;53.42;100572.16;126022;1099;101857;-79
2022/07/23 01:58:09;;;;;;;15.07;6.70;;;;;;;19.57;54.02;100565.05;126517;1099;104676;-78
2022/07/23 02:00:41;;;;;;;19.30;6.73;;;;;;;19.62;53.69;100567.72;126837;1099;102672;-78
2022/07/23 02:03:13;;;;;;;17.70;6.77;;;;;;;19.62;53.90;100573.95;125965;1099;104147;-77
2022/07/23 02:05:45;;;;;;;18.50;6.77;;;;;;;19.55;53.88;100569.50;125920;1099;102788;-78
2022/07/23 02:08:17;;;;;;;14.63;6.60;;;;;;;19.47;54.18;100568.63;127324;1098;101076;-78
2022/07/23 02:11:01;;;;;;;19.00;6.85;;;;;;;19.37;54.68;100570.40;126122;1098;104211;-78
2022/07/23 02:13:45;;;;;;;17.57;6.65;;;;;;;19.34;54.56;100571.27;126385;1099;104226;-77
2022/07/23 02:16:16;;;;;;;14.73;6.30;;;;;;;19.33;54.58;100574.81;127027;1098;104188;-77
2022/07/23 02:18:57;;;;;;;15.77;6.43;;;;;;;19.32;54.58;100581.04;126410;1098;102787;-77
2022/07/23 02:21:29;;;;;;;18.50;6.57;;;;;;;19.30;54.96;100569.48;126806;1099;104245;-78
2022/07/23 02:24:03;;;;;;;16.03;6.33;;;;;;;19.31;54.66;100589.89;126911;1099;104099;-77
2022/07/23 02:26:43;;;;;;;17.43;6.60;;;;;;;19.32;55.35;100585.45;126751;1099;104163;-78
2022/07/23 02:29:24;;;;;;;18.67;7.13;;;;;;;19.29;54.89;100585.45;126183;1099;104210;-77
2022/07/23 02:31:59;;;;;;;16.00;6.47;;;;;;;19.22;54.96;100579.23;126770;1098;104267;-77
2022/07/23 02:34:30;;;;;;;14.07;6.10;;;;;;;19.19;55.10;100585.42;126479;1099;104156;-77
2022/07/23 02:37:02;;;;;;;16.07;6.77;;;;;;;19.15;55.76;100588.98;125151;1099;104236;-77
2022/07/23 02:39:34;;;;;;;15.80;6.60;;;;;;;19.14;55.69;100586.33;125739;1099;102187;-78
2022/07/23 02:42:07;;;;;;;14.27;6.30;;;;;;;19.12;55.09;100585.41;125891;1099;102916;-77
2022/07/23 02:44:51;;;;;;;13.73;6.13;;;;;;;19.11;55.06;100588.98;126740;1099;103438;-77
2022/07/23 02:47:24;;;;;;;14.07;5.73;;;;;;;19.11;55.17;100592.52;125878;1099;104159;-77
2022/07/23 02:50:20;;;;;;;16.90;6.43;;;;;;;19.08;55.13;100594.29;125136;1099;104235;-77
2022/07/23 02:53:05;;;;;;;11.73;5.87;;;;;;;19.03;55.02;100600.47;125588;1102;102864;-78
2022/07/23 02:55:37;;;;;;;12.73;6.37;;;;;;;19.01;55.50;100593.37;125151;1102;102964;-78
2022/07/23 02:58:09;;;;;;;13.97;6.20;;;;;;;18.95;55.86;100596.92;124439;1099;104245;-78
2022/07/23 03:00:41;;;;;;;16.27;6.23;;;;;;;18.89;55.67;100596.02;125241;1099;104338;-77
2022/07/23 03:03:13;;;;;;;13.27;6.20;;;;;;;18.87;55.75;100603.99;125121;1099;104259;-78
2022/07/23 03:05:44;;;;;;;18.13;6.73;;;;;;;18.85;55.91;100605.73;124615;1102;102238;-77
2022/07/23 03:08:16;;;;;;;14.80;6.97;;;;;;;18.85;56.25;100603.98;125098;1102;104236;-77
2022/07/23 03:11:03;;;;;;;17.43;7.10;;;;;;;18.87;56.52;100606.65;125627;1099;104207;-78
2022/07/23 03:13:35;;;;;;;14.80;6.30;;;;;;;18.88;56.25;100605.74;125323;1102;104302;-78
2022/07/23 03:16:10;;;;;;;14.90;6.37;;;;;;;18.89;56.16;100606.66;127039;1099;104184;-79
2022/07/23 03:18:43;;;;;;;16.97;7.00;;;;;;;18.92;56.64;100601.34;127499;1099;101659;-77
2022/07/23 03:21:15;;;;;;;13.90;6.53;;;;;;;18.95;56.30;100611.99;126574;1099;101758;-77
2022/07/23 03:23:47;;;;;;;14.50;6.47;;;;;;;18.93;56.32;100614.65;125392;1099;104150;-77
2022/07/23 03:26:25;;;;;;;17.93;7.13;;;;;;;19.00;56.41;100615.55;126086;1102;102445;-78
2022/07/23 03:29:06;;;;;;;14.90;6.70;;;;;;;19.04;56.82;100617.30;125222;1102;102354;-79
2022/07/23 03:31:40;;;;;;;16.83;6.27;;;;;;;18.99;56.81;100614.63;125240;1102;104222;-79
2022/07/23 03:34:15;;;;;;;15.33;6.00;;;;;;;18.94;56.82;100621.72;125437;1102;104171;-78
2022/07/23 03:36:50;;;;;;;17.00;6.30;;;;;;;18.92;56.51;100618.17;125792;1102;104296;-78
2022/07/23 03:39:33;;;;;;;13.17;6.17;;;;;;;18.97;56.87;100616.41;126070;1102;102403;-78
2022/07/23 03:42:07;;;;;;;13.80;5.97;;;;;;;19.04;56.55;100620.88;126005;1102;101914;-78
2022/07/23 03:44:39;;;;;;;14.60;6.60;;;;;;;19.10;56.37;100622.64;125789;1102;102602;-79
2022/07/23 03:47:33;;;;;;;15.00;6.07;;;;;;;19.12;56.46;100623.56;126035;1102;102694;-80
2022/07/23 03:50:07;;;;;;;14.03;6.30;;;;;;;19.16;56.68;100624.44;125700;1102;104220;-80
2022/07/23 03:52:41;;;;;;;14.97;6.10;;;;;;;19.15;56.79;100620.00;125296;1102;104697;-79
2022/07/23 03:55:30;;;;;;;16.60;6.27;;;;;;;19.16;56.79;100621.78;125519;1102;104166;-80
2022/07/23 03:58:04;;;;;;;12.70;5.83;;;;;;;19.20;56.91;100616.47;125842;1102;102311;-79
2022/07/23 04:00:47;;;;;;;14.70;6.50;;;;;;;19.25;56.59;100619.14;125742;1102;104102;-79
2022/07/23 04:03:29;;;;;;;14.43;6.27;;;;;;;19.26;57.04;100618.27;125956;1099;103363;-79
2022/07/23 04:06:08;;;;;;;14.47;6.13;;;;;;;19.33;57.06;100616.50;126578;1098;104338;-80
2022/07/23 04:08:44;;;;;;;15.83;6.67;;;;;;;19.37;56.82;100605.86;126424;1098;102019;-79
2022/07/23 04:11:16;;;;;;;19.00;7.00;;;;;;;19.45;57.06;100615.64;126460;1099;102215;-79
2022/07/23 04:13:54;;;;;;;13.90;6.23;;;;;;;19.53;57.13;100613.87;126310;1099;104098;-79
2022/07/23 04:16:26;;;;;;;15.20;6.33;;;;;;;19.62;57.06;100610.30;127534;1098;101796;-79
2022/07/23 04:19:21;;;;;;;14.43;5.63;;;;;;;19.72;56.78;100615.63;126495;1099;101537;-79
2022/07/23 04:22:05;;;;;;;15.03;6.70;;;;;;;19.77;57.26;100615.66;126511;1099;103151;-79
2022/07/23 04:24:44;;;;;;;17.30;6.30;;;;;;;19.79;56.76;100613.91;126343;1099;101763;-79
2022/07/23 04:27:42;;;;;;;14.17;6.27;;;;;;;19.81;56.98;100614.78;126429;1099;102071;-79
2022/07/23 04:30:15;;;;;;;13.77;6.17;;;;;;;19.86;56.33;100617.45;126013;1099;101897;-79
2022/07/23 04:32:51;;;;;;;13.43;5.63;;;;;;;19.89;56.95;100614.78;125670;1099;102079;-79
2022/07/23 04:35:32;;;;;;;13.43;5.73;;;;;;;19.89;56.79;100615.66;125592;1102;101927;-79
2022/07/23 04:38:30;;;;;;;14.87;5.78;;;;;;;19.90;56.30;100617.44;125627;1102;107965;-79
2022/07/23 04:41:27;;;;;;;12.97;5.90;;;;;;;19.98;56.67;100608.58;126028;1099;102251;-79
2022/07/23 04:44:12;;;;;;;14.40;5.83;;;;;;;20.05;56.56;100607.66;125949;1099;101669;-79
2022/07/23 04:46:48;;;;;;;14.97;5.93;;;;;;;20.13;55.91;100612.97;126070;1102;102218;-79
2022/07/23 04:49:19;;;;;;;11.83;5.97;;;;;;;20.18;56.29;100619.17;126052;1102;101947;-79
2022/07/23 04:51:57;;;;;;;13.47;5.63;;;;;;;20.21;55.35;100616.50;125712;1101;102977;-79
2022/07/23 04:54:41;;;;;;;12.37;5.27;;;;;;;20.25;55.04;100611.16;125605;1102;104220;-78
2022/07/23 04:57:57;;;;;;;12.03;5.33;;;;;;;20.33;56.12;100618.27;125820;1099;104294;-79
2022/07/23 05:00:38;;;;;;;12.33;5.30;;;;;;;20.44;55.45;100620.02;126079;1099;104149;-79
2022/07/23 05:03:28;;;;;;;11.50;5.83;;;;;;;20.50;55.01;100624.42;126388;1098;102344;-78
2022/07/23 05:06:05;;;;;;;13.07;5.30;;;;;;;20.55;55.14;100616.41;125573;1102;103430;-78
2022/07/23 05:08:40;;;;;;;13.43;5.17;;;;;;;20.61;54.60;100616.39;125848;1102;102077;-79
2022/07/23 05:14:21;;;;;;;11.73;5.47;;;;;;;20.73;55.08;100626.17;125681;1102;102002;-79
2022/07/23 05:17:07;;;;;;;12.07;5.10;;;;;;;20.79;54.55;100627.02;125811;1105;102453;-79
2022/07/23 05:19:50;;;;;;;13.37;5.60;;;;;;;20.86;54.35;100624.33;125379;1102;103232;-79
2022/07/23 05:22:34;;;;;;;11.47;4.93;;;;;;;20.91;54.39;100619.84;125183;1105;104328;-79
2022/07/23 05:25:24;;;;;;;12.27;5.10;;;;;;;20.99;53.51;100623.37;125972;1105;101821;-78
2022/07/23 05:28:09;;;;;;;14.73;4.87;;;;;;;21.06;53.75;100627.77;125819;1103;103319;-78
2022/07/23 05:30:50;;;;;;;13.30;5.60;;;;;;;21.16;53.97;100620.59;126243;1102;103022;-79
2022/07/23 05:33:30;;;;;;;12.43;5.33;;;;;;;21.28;54.22;100625.85;126184;1105;102412;-80
2022/07/23 05:36:12;;;;;;;16.47;5.57;;;;;;;21.37;53.90;100625.80;126022;1102;101549;-79
2022/07/23 05:39:03;;;;;;;12.30;5.23;;;;;;;21.46;52.77;100622.19;125914;1102;102148;-80
2022/07/23 05:41:42;;;;;;;14.90;5.37;;;;;;;21.56;53.41;100619.48;125982;1102;102024;-79
2022/07/23 05:47:59;;;;;;;13.97;4.97;;;;;;;21.77;51.99;100616.64;126143;1102;102315;-79
2022/07/23 05:51:03;;;;;;;14.07;5.10;;;;;;;21.88;51.64;100622.77;126112;1099;101719;-79
2022/07/23 05:53:45;;;;;;;15.90;5.40;;;;;;;22.00;52.18;100615.53;126047;1099;101725;-79
2022/07/23 05:56:38;;;;;;;12.20;5.20;;;;;;;22.11;52.03;100626.12;125927;1102;102394;-79
2022/07/23 05:59:22;;;;;;;11.77;5.20;;;;;;;22.21;51.49;100619.80;125964;1102;103752;-79
2022/07/23 06:02:13;;;;;;;12.13;5.03;;;;;;;22.31;51.56;100610.78;126267;1099;101753;-78
2022/07/23 06:04:45;;;;;;;15.13;4.93;;;;;;;22.42;51.88;100616.02;125993;1099;102352;-79
2022/07/23 06:07:34;;;;;;;14.03;5.37;;;;;;;22.53;50.96;100611.45;125655;1102;104156;-79
2022/07/23 06:10:11;;;;;;;14.17;5.17;;;;;;;22.66;50.63;100611.27;125802;1099;104288;-79
2022/07/23 06:12:42;;;;;;;10.30;4.60;;;;;;;22.76;50.63;100608.47;125684;1099;101897;-79
2022/07/23 06:15:16;;;;;;;12.20;4.63;;;;;;;22.86;50.98;100614.61;125092;1099;104246;-79
2022/07/23 06:18:01;;;;;;;15.50;4.73;;;;;;;22.97;50.42;100620.69;125398;1099;104169;-80
2022/07/23 06:21:08;;;;;;;10.40;4.83;;;;;;;23.07;49.98;100612.53;125959;1099;110606;-79
2022/07/23 06:23:39;;;;;;;13.43;4.53;;;;;;;23.22;49.95;100616.80;125118;1099;104207;-79
2022/07/23 06:26:19;;;;;;;10.67;4.33;;;;;;;23.31;49.17;100617.56;125250;1100;103261;-80
2022/07/23 06:28:52;;;;;;;15.00;4.60;;;;;;;23.43;49.53;100612.92;125195;1099;104783;-79
2022/07/23 06:31:26;;;;;;;9.97;4.33;;;;;;;23.54;49.40;100613.63;125793;1099;104153;-79
2022/07/23 06:34:00;;;;;;;11.37;4.23;;;;;;;23.65;48.79;100611.69;125045;1099;104211;-80
2022/07/23 06:36:32;;;;;;;10.77;4.37;;;;;;;23.76;48.88;100610.60;125194;1102;104291;-79
2022/07/23 06:39:16;;;;;;;16.17;4.60;;;;;;;23.88;48.74;100607.75;125080;1100;104230;-79
2022/07/23 06:41:58;;;;;;;15.07;4.20;;;;;;;24.00;48.57;100604.84;125050;1102;104169;-79
2022/07/23 06:44:48;;;;;;;12.07;4.37;;;;;;;24.11;48.12;100603.78;125154;1099;104213;-79
2022/07/23 06:47:32;;;;;;;10.13;3.87;;;;;;;24.23;48.09;100609.78;125285;1102;104309;-79
2022/07/23 06:50:05;;;;;;;7.53;4.20;;;;;;;24.36;47.50;100605.06;125023;1102;104353;-79
2022/07/23 06:52:46;;;;;;;11.73;4.07;;;;;;;24.50;47.11;100611.96;125349;1102;104156;-80
2022/07/23 06:55:30;;;;;;;7.87;3.77;;;;;;;24.65;46.71;100606.32;126391;1099;102123;-79
2022/07/23 06:58:05;;;;;;;5.20;3.47;;;;;;;24.76;46.42;100609.65;126121;1099;104198;-80
2022/07/23 07:00:36;;;;;;;10.33;3.27;;;;;;;24.90;46.22;100603.08;125064;1101;104263;-80
2022/07/23 07:03:08;;;;;;;8.60;3.10;;;;;;;25.03;45.65;100601.91;125208;1102;102194;-79
2022/07/23 07:05:53;;;;;;;4.60;2.70;;;;;;;25.17;45.26;100603.41;125102;1102;103347;-79
2022/07/23 07:08:30;;;;;;;5.77;2.70;;;;;;;25.35;44.33;100605.66;125687;1102;104069;-79
2022/07/23 07:11:11;;;;;;;6.27;3.00;;;;;;;25.55;44.21;100607.00;125952;1102;104057;-79
2022/07/23 07:14:04;;;;;;;5.30;2.60;;;;;;;25.72;43.35;100612.83;126270;1101;101757;-80
2022/07/23 07:16:50;;;;;;;7.60;2.87;;;;;;;25.91;42.90;100606.98;125844;1101;104270;-80
2022/07/23 07:19:33;;;;;;;3.73;2.73;;;;;;;26.08;42.08;100598.50;125594;1102;103251;-79
2022/07/23 07:22:19;;;;;;;4.10;2.90;;;;;;;26.32;42.13;100608.59;126293;1099;101702;-79
2022/07/23 07:24:53;;;;;;;5.03;3.13;;;;;;;26.49;41.85;100605.42;125763;1102;104310;-80
2022/07/23 07:27:34;;;;;;;9.50;3.60;;;;;;;26.63;41.83;100606.81;126039;1102;102080;-80
2022/07/23 07:30:10;;;;;;;7.07;3.30;;;;;;;26.88;41.47;100613.28;125435;1102;104169;-80
2022/07/23 07:32:49;;;;;;;9.87;3.60;;;;;;;27.05;40.55;100609.17;125875;1101;102119;-80
2022/07/23 07:35:25;;;;;;;5.77;3.30;;;;;;;27.24;40.97;100606.81;126253;1101;102052;-79
2022/07/23 07:38:00;;;;;;;6.17;3.20;;;;;;;27.38;40.20;100611.79;125605;1102;104057;-79
2022/07/23 07:40:58;;;;;;;8.20;3.20;;;;;;;27.52;40.15;100609.52;125888;1102;103408;-79
2022/07/23 07:43:33;;;;;;;7.80;3.23;;;;;;;27.67;39.63;100602.72;126129;1102;102300;-79
2022/07/23 07:46:06;;;;;;;8.97;3.20;;;;;;;27.78;39.21;100600.56;126217;1099;101933;-80
2022/07/23 07:48:47;;;;;;;7.50;3.50;;;;;;;27.89;39.07;100608.28;125357;1099;102330;-80
2022/07/23 07:51:22;;;;;;;7.10;3.30;;;;;;;28.06;39.06;100593.34;125405;1102;104163;-81
2022/07/23 07:53:54;;;;;;;4.50;2.87;;;;;;;28.19;37.95;100591.07;125593;1102;104238;-81
2022/07/23 07:56:26;;;;;;;5.50;2.77;;;;;;;28.33;37.80;100596.87;125340;1103;104198;-80
2022/07/23 07:59:03;;;;;;;5.70;2.90;;;;;;;28.45;37.90;100595.52;125369;1102;104329;-79
2022/07/23 08:01:47;;;;;;;5.70;3.07;;;;;;;28.65;37.91;100592.98;125800;1102;104064;-79
2022/07/23 08:04:20;;;;;;;;;;;;;;;28.83;33.45;100595.94;126619;1098;101721;-80
2022/07/23 08:07:00;;;;;;;7.33;3.27;;;;;;;28.95;36.38;100594.55;125927;1099;104165;-79
2022/07/23 08:09:33;;;;;;;6.70;3.03;;;;;;;29.05;36.16;100585.16;127837;1098;101497;-78
2022/07/23 08:12:07;;;;;;;3.58;3.00;;;;;;;29.15;36.13;100574.85;125385;1099;104243;-78
2022/07/23 08:14:48;;;;;;;5.83;3.03;;;;;;;29.32;35.59;100580.48;126876;1098;102747;-79
2022/07/23 08:17:27;;;;;;;6.03;3.07;;;;;;;29.42;35.84;100572.89;125932;1099;104172;-79
2022/07/23 08:20:05;;;;;;;5.70;3.00;;;;;;;29.61;35.18;100578.39;126156;1098;103206;-78
2022/07/23 08:23:07;;;;;;;4.13;3.07;;;;;;;29.77;35.08;100567.80;126111;1098;104245;-79
2022/07/23 08:25:50;;;;;;;6.47;2.70;;;;;;;29.89;34.83;100577.25;126851;1098;104192;-79
2022/07/23 08:28:38;;;;;;;7.10;2.80;;;;;;;30.06;33.29;100569.26;125937;1099;104175;-79
2022/07/23 08:31:16;;;;;;;7.77;3.03;;;;;;;30.12;32.94;100568.09;126054;1099;104199;-79
2022/07/23 08:34:03;;;;;;;4.57;2.60;;;;;;;30.23;32.29;100575.72;125925;1099;104239;-79
2022/07/23 08:36:46;;;;;;;9.20;2.70;;;;;;;30.38;31.62;100571.45;125672;1099;104370;-79
2022/07/23 08:39:19;;;;;;;6.50;2.60;;;;;;;30.44;32.02;100574.78;126015;1099;104172;-78
2022/07/23 08:41:55;;;;;;;5.53;2.75;;;;;;;30.41;31.99;100566.80;125708;1099;102387;-79
2022/07/23 08:44:31;;;;;;;4.90;2.67;;;;;;;30.29;31.53;100564.62;126816;1098;102337;-78
2022/07/23 08:47:07;;;;;;;4.30;2.60;;;;;;;30.33;30.65;100557.27;126488;1098;104242;-79
2022/07/23 08:49:41;;;;;;;6.53;2.70;;;;;;;30.42;30.90;100565.00;125759;1099;104203;-79
2022/07/23 08:52:26;;;;;;;4.50;2.60;;;;;;;30.44;30.91;100555.83;126641;1098;101948;-79
2022/07/23 08:55:07;;;;;;;5.53;2.63;;;;;;;30.54;31.00;100558.11;127117;1098;101979;-78
2022/07/23 08:57:53;;;;;;;2.83;2.50;;;;;;;30.68;30.85;100561.04;126844;1099;102155;-80
2022/07/23 09:00:34;;;;;;;6.30;2.70;;;;;;;30.74;30.88;100559.88;126969;1099;102210;-79
2022/07/23 09:03:10;;;;;;;3.25;2.58;;;;;;;30.82;29.41;100555.87;126236;1099;102258;-80
2022/07/23 09:05:58;;;;;;;3.30;2.63;;;;;;;30.86;29.71;100551.17;126866;1098;104188;-79
2022/07/23 09:08:39;;;;;;;5.77;2.73;;;;;;;30.91;29.00;100545.53;126425;1098;101773;-80
2022/07/23 09:11:12;;;;;;;6.27;3.10;;;;;;;30.99;28.82;100540.64;126007;1099;102083;-80
2022/07/23 09:13:50;;;;;;;3.30;2.50;;;;;;;31.03;29.22;100542.27;125880;1098;104271;-80
2022/07/23 09:16:24;;;;;;;4.00;2.60;;;;;;;30.87;28.38;100546.63;125797;1099;102171;-80
2022/07/23 09:19:01;;;;;;;4.73;2.60;;;;;;;30.85;28.27;100543.13;125905;1099;104246;-80
2022/07/23 09:21:46;;;;;;;5.00;2.70;;;;;;;30.81;27.89;100545.11;126811;1099;102007;-80
2022/07/23 09:24:27;;;;;;;4.77;2.70;;;;;;;30.90;28.22;100538.34;126963;1098;104251;-79
2022/07/23 09:27:17;;;;;;;5.90;2.73;;;;;;;30.95;28.00;100539.02;126993;1098;101682;-79
2022/07/23 09:30:02;;;;;;;6.95;3.15;;;;;;;31.07;27.83;100541.17;125506;1102;102526;-81
2022/07/23 09:32:35;;;;;;;8.80;3.23;;;;;;;31.07;27.93;100540.27;125095;1102;103099;-81
2022/07/23 09:35:08;;;;;;;5.73;3.40;;;;;;;31.08;28.22;100537.48;125210;1099;104265;-81
2022/07/23 09:38:01;;;;;;;7.53;2.80;;;;;;;31.06;28.01;100538.53;125709;1099;104169;-81
2022/07/23 09:40:37;;;;;;;9.27;3.00;;;;;;;31.01;27.82;100536.05;125551;1099;101700;-80
2022/07/23 09:43:11;;;;;;;5.50;2.83;;;;;;;30.98;27.77;100528.94;125208;1099;104227;-81
2022/07/23 09:45:43;;;;;;;3.73;2.90;;;;;;;31.01;28.09;100530.63;125604;1099;102299;-79
2022/07/23 09:48:27;;;;;;;6.33;2.97;;;;;;;31.05;27.70;100528.64;125688;1099;102752;-80
2022/07/23 09:51:08;;;;;;;4.17;3.00;;;;;;;31.07;27.64;100537.56;125295;1099;104271;-80
2022/07/23 09:53:44;;;;;;;5.97;3.00;;;;;;;31.10;27.41;100531.98;125102;1100;104211;-80
2022/07/23 09:56:20;;;;;;;6.30;2.90;;;;;;;31.13;27.39;100535.41;125650;1099;104207;-80
2022/07/23 09:59:19;;;;;;;5.23;2.70;;;;;;;31.31;27.53;100528.20;126062;1099;102233;-79
2022/07/23 10:02:04;;;;;;;5.97;2.80;;;;;;;31.47;27.48;100527.44;125813;1099;104903;-79
2022/07/23 10:04:41;;;;;;;3.47;2.80;;;;;;;31.54;27.63;100518.94;125984;1099;104147;-79
2022/07/23 10:07:27;;;;;;;5.00;2.83;;;;;;;31.48;27.54;100515.64;125823;1099;103206;-80
2022/07/23 10:13:52;;;;;;;5.57;2.87;;;;;;;31.66;27.48;100517.41;125823;1099;102929;-80
2022/07/23 10:16:34;;;;;;;5.13;2.97;;;;;;;31.74;27.28;100513.42;125876;1099;101968;-80
2022/07/23 10:19:11;;;;;;;9.87;2.93;;;;;;;31.72;26.89;100511.66;126050;1099;102063;-80
2022/07/23 10:21:53;;;;;;;5.30;3.10;;;;;;;31.65;26.73;100512.96;125207;1099;102823;-80
2022/07/23 10:24:50;;;;;;;4.90;2.93;;;;;;;31.57;26.91;100506.17;125289;1099;104188;-80
2022/07/23 10:27:42;;;;;;;6.23;2.93;;;;;;;31.54;27.04;100505.38;125535;1099;104367;-80
2022/07/23 10:30:24;;;;;;;8.40;3.67;;;;;;;31.54;26.92;100502.67;125939;1099;101965;-79
2022/07/23 10:33:13;;;;;;;6.07;3.23;;;;;;;31.56;26.84;100504.44;125633;1099;104208;-80
2022/07/23 10:35:53;;;;;;;6.20;2.90;;;;;;;31.57;26.65;100504.35;126594;1099;102733;-80
2022/07/23 10:38:39;;;;;;;8.58;2.72;;;;;;;31.53;26.50;100502.71;125961;1099;102119;-81
2022/07/23 10:41:13;;;;;;;5.90;3.07;;;;;;;31.57;26.21;100506.17;125396;1099;102890;-80
2022/07/23 10:44:08;;;;;;;3.00;2.70;;;;;;;31.59;26.31;100502.43;125413;1102;102197;-80
2022/07/23 10:50:30;;;;;;;5.00;2.73;;;;;;;31.64;25.85;100494.05;126201;1098;102778;-81
2022/07/23 10:53:18;;;;;;;6.37;2.63;;;;;;;31.53;25.62;100500.91;126546;1099;104242;-80
2022/07/23 10:55:53;;;;;;;6.87;2.60;;;;;;;31.58;25.75;100494.37;125962;1099;104351;-80
2022/07/23 10:58:47;;;;;;;4.57;2.67;;;;;;;31.61;25.76;100481.52;126034;1099;102293;-79
2022/07/23 11:01:38;;;;;;;6.70;2.90;;;;;;;31.70;25.73;100481.04;125998;1099;102276;-80
2022/07/23 11:04:13;;;;;;;7.53;3.00;;;;;;;31.76;25.82;100482.56;126228;1098;105436;-79
2022/07/23 11:07:12;;;;;;;4.93;2.57;;;;;;;31.83;25.45;100473.11;127643;1098;101517;-79
2022/07/23 11:09:51;;;;;;;6.07;2.83;;;;;;;31.81;25.29;100482.31;126090;1099;103299;-80
2022/07/23 11:12:49;;;;;;;5.63;2.73;;;;;;;31.82;25.25;100467.77;126534;1099;104140;-80
2022/07/23 11:15:32;;;;;;;3.83;2.77;;;;;;;31.96;25.47;100470.64;127093;1099;104156;-80
2022/07/23 11:18:09;;;;;;;6.70;2.60;;;;;;;32.08;25.41;100463.65;126196;1099;104179;-77
2022/07/23 11:20:40;;;;;;;7.43;2.73;;;;;;;32.17;25.37;100457.75;126735;1098;101669;-77
2022/07/23 11:23:20;;;;;;;12.10;3.43;;;;;;;32.28;25.39;100459.88;126532;1099;103178;-77
2022/07/23 11:25:57;;;;;;;6.67;2.60;;;;;;;32.33;25.38;100457.77;126000;1099;102025;-77
2022/07/23 11:28:31;;;;;;;6.70;2.67;;;;;;;32.34;25.41;100453.23;126075;1099;104113;-79
2022/07/23 11:31:20;;;;;;;7.17;2.80;;;;;;;32.36;25.30;100451.30;126375;1099;102158;-79
2022/07/23 11:34:31;;;;;;;4.17;2.83;;;;;;;32.31;25.30;100446.13;126909;1098;102073;-79
2022/07/23 11:37:04;;;;;;;7.03;2.80;;;;;;;32.31;25.25;100451.55;127063;1098;104312;-81
2022/07/23 11:39:40;;;;;;;2.73;2.40;;;;;;;32.28;24.92;100445.43;126191;1099;102189;-80
2022/07/23 11:42:18;;;;;;;6.33;2.50;;;;;;;32.23;24.80;100451.98;126139;1098;102771;-80
2022/07/23 11:44:56;;;;;;;3.70;2.70;;;;;;;32.16;24.87;100452.41;126416;1098;102150;-80
2022/07/23 11:47:31;;;;;;;5.43;2.83;;;;;;;32.08;24.43;100447.37;126189;1098;102835;-80
2022/07/23 11:50:09;;;;;;;5.83;2.73;;;;;;;32.07;24.70;100441.08;126262;1099;104224;-79
2022/07/23 11:52:41;;;;;;;5.07;2.70;;;;;;;32.13;24.65;100431.73;126158;1099;104101;-80
2022/07/23 11:55:16;;;;;;;4.08;2.65;;;;;;;32.21;24.75;100431.30;126254;1098;102158;-79
2022/07/23 11:57:48;;;;;;;3.73;2.70;;;;;;;32.31;24.77;100428.97;126791;1098;110801;-80
2022/07/23 12:00:24;;;;;;;6.37;2.60;;;;;;;32.30;24.49;100429.92;126381;1099;104076;-80
2022/07/23 12:03:00;;;;;;;4.57;2.60;;;;;;;32.27;24.24;100430.09;127347;1098;101892;-81
2022/07/23 12:05:42;;;;;;;7.47;2.77;;;;;;;32.21;23.98;100432.20;126196;1099;102787;-80
2022/07/23 12:08:19;;;;;;;3.72;2.58;;;;;;;32.21;23.97;100426.77;127645;1098;101482;-80
2022/07/23 12:10:53;;;;;;;4.77;2.90;;;;;;;32.20;23.90;100430.44;126313;1099;104258;-80
2022/07/23 12:13:29;;;;;;;3.70;2.70;;;;;;;32.22;24.07;100428.50;126319;1099;101981;-80